sensor_id;sensor_type;location;lat;lon;timestamp;temperature;humidity
50606;DHT22;36557;53.572;10.170;2022-07-10T00:00:36;13.50;99.90
50606;DHT22;36557;53.572;10.170;2022-07-10T00:03:03;13.40;99.90
50606;DHT22;36557;53.572;10.170;2022-07-10T00:05:29;13.50;99.90
50606;DHT22;36557;53.572;10.170;2022-07-10T00:07:55;13.50;99.90
50606;DHT22;36557;53.572;10.170;2022-07-10T00:10:22;13.40;99.90
50606;DHT22;36557;53.572;10.170;2022-07-10T00:12:48;13.40;99.90
50606;DHT22;36557;53.572;10.170;2022-07-10T00:15:16;13.40;99.90
50606;DHT22;36557;53.572;10.170;2022-07-10T00:17:43;13.50;99.90
50606;DHT22;36557;53.572;10.170;2022-07-10T00:20:10;13.50;99.90
50606;DHT22;36557;53.572;10.170;2022-07-10T00:22:37;13.50;99.90
50606;DHT22;36557;53.572;10.170;2022-07-10T00:25:07;13.50;99.90
50606;DHT22;36557;53.572;10.170;2022-07-10T00:27:34;13.60;99.90
50606;DHT22;36557;53.572;10.170;2022-07-10T00:30:00;13.50;99.90
50606;DHT22;36557;53.572;10.170;2022-07-10T00:32:26;13.50;99.90
50606;DHT22;36557;53.572;10.170;2022-07-10T00:34:52;13.40;99.90
50606;DHT22;36557;53.572;10.170;2022-07-10T00:37:18;13.30;99.90
50606;DHT22;36557;53.572;10.170;2022-07-10T00:39:46;13.30;99.90
50606;DHT22;36557;53.572;10.170;2022-07-10T00:42:13;13.30;99.90
50606;DHT22;36557;53.572;10.170;2022-07-10T00:44:40;13.30;99.90
50606;DHT22;36557;53.572;10.170;2022-07-10T00:47:07;13.30;99.90
50606;DHT22;36557;53.572;10.170;2022-07-10T00:49:35;13.30;99.90
50606;DHT22;36557;53.572;10.170;2022-07-10T00:52:03;13.20;99.90
50606;DHT22;36557;53.572;10.170;2022-07-10T00:54:30;13.20;99.90
50606;DHT22;36557;53.572;10.170;2022-07-10T00:56:57;13.30;99.90
50606;DHT22;36557;53.572;10.170;2022-07-10T00:59:23;13.30;99.90
50606;DHT22;36557;53.572;10.170;2022-07-10T01:01:50;13.30;99.90
50606;DHT22;36557;53.572;10.170;2022-07-10T01:04:16;13.30;99.90
50606;DHT22;36557;53.572;10.170;2022-07-10T01:06:42;13.30;99.90
50606;DHT22;36557;53.572;10.170;2022-07-10T01:09:08;13.30;99.90
50606;DHT22;36557;53.572;10.170;2022-07-10T01:11:34;13.30;99.90
50606;DHT22;36557;53.572;10.170;2022-07-10T01:14:02;13.40;99.90
50606;DHT22;36557;53.572;10.170;2022-07-10T01:16:28;13.40;99.90
50606;DHT22;36557;53.572;10.170;2022-07-10T01:18:56;13.40;99.90
50606;DHT22;36557;53.572;10.170;2022-07-10T01:21:28;13.40;99.90
50606;DHT22;36557;53.572;10.170;2022-07-10T01:23:55;13.30;99.90
50606;DHT22;36557;53.572;10.170;2022-07-10T01:26:21;13.40;99.90
50606;DHT22;36557;53.572;10.170;2022-07-10T01:28:50;13.40;99.90
50606;DHT22;36557;53.572;10.170;2022-07-10T01:31:34;13.40;99.90
50606;DHT22;36557;53.572;10.170;2022-07-10T01:34:01;13.40;99.90
50606;DHT22;36557;53.572;10.170;2022-07-10T01:36:28;13.40;99.90
50606;DHT22;36557;53.572;10.170;2022-07-10T01:38:56;13.30;99.90
50606;DHT22;36557;53.572;10.170;2022-07-10T01:41:22;13.30;99.90
50606;DHT22;36557;53.572;10.170;2022-07-10T01:43:49;13.30;99.90
50606;DHT22;36557;53.572;10.170;2022-07-10T01:46:15;13.30;99.90
50606;DHT22;36557;53.572;10.170;2022-07-10T01:48:41;13.30;99.90
50606;DHT22;36557;53.572;10.170;2022-07-10T01:51:09;13.30;99.90
50606;DHT22;36557;53.572;10.170;2022-07-10T01:53:35;13.30;99.90
50606;DHT22;36557;53.572;10.170;2022-07-10T01:56:04;13.30;99.90
50606;DHT22;36557;53.572;10.170;2022-07-10T01:58:30;13.30;99.90
50606;DHT22;36557;53.572;10.170;2022-07-10T02:00:56;13.40;99.90
50606;DHT22;36557;53.572;10.170;2022-07-10T02:03:22;13.40;99.90
50606;DHT22;36557;53.572;10.170;2022-07-10T02:06:06;13.40;99.90
50606;DHT22;36557;53.572;10.170;2022-07-10T02:08:32;13.30;99.90
50606;DHT22;36557;53.572;10.170;2022-07-10T02:10:58;13.30;99.90
50606;DHT22;36557;53.572;10.170;2022-07-10T02:13:24;13.30;99.90
50606;DHT22;36557;53.572;10.170;2022-07-10T02:15:56;13.30;99.90
50606;DHT22;36557;53.572;10.170;2022-07-10T02:18:22;13.30;99.90
50606;DHT22;36557;53.572;10.170;2022-07-10T02:20:48;13.30;99.90
50606;DHT22;36557;53.572;10.170;2022-07-10T02:23:14;13.40;99.90
50606;DHT22;36557;53.572;10.170;2022-07-10T02:25:39;13.50;99.90
50606;DHT22;36557;53.572;10.170;2022-07-10T02:28:05;13.40;99.90
50606;DHT22;36557;53.572;10.170;2022-07-10T02:30:31;13.40;99.90
50606;DHT22;36557;53.572;10.170;2022-07-10T02:32:57;13.40;99.90
50606;DHT22;36557;53.572;10.170;2022-07-10T02:35:23;13.30;99.90
50606;DHT22;36557;53.572;10.170;2022-07-10T02:37:49;13.40;99.90
50606;DHT22;36557;53.572;10.170;2022-07-10T02:40:14;13.40;99.90
50606;DHT22;36557;53.572;10.170;2022-07-10T02:42:40;13.40;99.90
50606;DHT22;36557;53.572;10.170;2022-07-10T02:45:07;13.40;99.90
50606;DHT22;36557;53.572;10.170;2022-07-10T02:47:33;13.40;99.90
50606;DHT22;36557;53.572;10.170;2022-07-10T02:49:59;13.30;99.90
50606;DHT22;36557;53.572;10.170;2022-07-10T02:52:24;13.30;99.90
50606;DHT22;36557;53.572;10.170;2022-07-10T02:54:50;13.30;99.90
50606;DHT22;36557;53.572;10.170;2022-07-10T02:57:16;13.40;99.90
50606;DHT22;36557;53.572;10.170;2022-07-10T02:59:42;13.30;99.90
50606;DHT22;36557;53.572;10.170;2022-07-10T03:02:08;13.40;99.90
50606;DHT22;36557;53.572;10.170;2022-07-10T03:04:34;13.40;99.90
50606;DHT22;36557;53.572;10.170;2022-07-10T03:07:00;13.40;99.90
50606;DHT22;36557;53.572;10.170;2022-07-10T03:09:26;13.40;99.90
50606;DHT22;36557;53.572;10.170;2022-07-10T03:11:52;13.40;99.90
50606;DHT22;36557;53.572;10.170;2022-07-10T03:14:18;13.40;99.90
50606;DHT22;36557;53.572;10.170;2022-07-10T03:16:44;13.40;99.90
50606;DHT22;36557;53.572;10.170;2022-07-10T03:19:09;13.40;99.90
50606;DHT22;36557;53.572;10.170;2022-07-10T03:21:35;13.40;99.90
50606;DHT22;36557;53.572;10.170;2022-07-10T03:24:01;13.40;99.90
50606;DHT22;36557;53.572;10.170;2022-07-10T03:26:27;13.40;99.90
50606;DHT22;36557;53.572;10.170;2022-07-10T03:28:55;13.40;99.90
50606;DHT22;36557;53.572;10.170;2022-07-10T03:31:21;13.40;99.90
50606;DHT22;36557;53.572;10.170;2022-07-10T03:33:48;13.30;99.90
50606;DHT22;36557;53.572;10.170;2022-07-10T03:36:14;13.30;99.90
50606;DHT22;36557;53.572;10.170;2022-07-10T03:38:40;13.30;99.90
50606;DHT22;36557;53.572;10.170;2022-07-10T03:41:06;13.30;99.90
50606;DHT22;36557;53.572;10.170;2022-07-10T03:43:32;13.30;99.90
50606;DHT22;36557;53.572;10.170;2022-07-10T03:45:58;13.30;99.90
50606;DHT22;36557;53.572;10.170;2022-07-10T03:48:24;13.30;99.90
50606;DHT22;36557;53.572;10.170;2022-07-10T03:50:51;13.40;99.90
50606;DHT22;36557;53.572;10.170;2022-07-10T03:53:17;13.40;99.90
50606;DHT22;36557;53.572;10.170;2022-07-10T03:55:43;13.40;99.90
50606;DHT22;36557;53.572;10.170;2022-07-10T03:58:09;13.50;99.90
50606;DHT22;36557;53.572;10.170;2022-07-10T04:00:34;13.40;99.90
50606;DHT22;36557;53.572;10.170;2022-07-10T04:03:05;13.50;99.90
50606;DHT22;36557;53.572;10.170;2022-07-10T04:05:31;13.50;99.90
50606;DHT22;36557;53.572;10.170;2022-07-10T04:07:58;13.50;99.90
50606;DHT22;36557;53.572;10.170;2022-07-10T04:10:24;13.60;99.90
50606;DHT22;36557;53.572;10.170;2022-07-10T04:12:51;13.60;99.90
50606;DHT22;36557;53.572;10.170;2022-07-10T04:15:17;13.60;99.90
50606;DHT22;36557;53.572;10.170;2022-07-10T04:17:43;13.60;99.90
50606;DHT22;36557;53.572;10.170;2022-07-10T04:20:09;13.60;99.90
50606;DHT22;36557;53.572;10.170;2022-07-10T04:22:35;13.60;99.90
50606;DHT22;36557;53.572;10.170;2022-07-10T04:25:01;13.60;99.90
50606;DHT22;36557;53.572;10.170;2022-07-10T04:27:27;13.70;99.90
50606;DHT22;36557;53.572;10.170;2022-07-10T04:29:52;13.70;99.90
50606;DHT22;36557;53.572;10.170;2022-07-10T04:32:19;13.70;99.90
50606;DHT22;36557;53.572;10.170;2022-07-10T04:34:44;13.80;99.90
50606;DHT22;36557;53.572;10.170;2022-07-10T04:37:10;13.80;99.90
50606;DHT22;36557;53.572;10.170;2022-07-10T04:39:37;13.80;99.90
50606;DHT22;36557;53.572;10.170;2022-07-10T04:42:04;13.90;99.90
50606;DHT22;36557;53.572;10.170;2022-07-10T04:44:30;13.90;99.90
50606;DHT22;36557;53.572;10.170;2022-07-10T04:46:56;13.90;99.90
50606;DHT22;36557;53.572;10.170;2022-07-10T04:49:22;14.00;99.90
50606;DHT22;36557;53.572;10.170;2022-07-10T04:51:48;14.00;99.90
50606;DHT22;36557;53.572;10.170;2022-07-10T04:54:14;13.90;99.90
50606;DHT22;36557;53.572;10.170;2022-07-10T04:56:39;14.00;99.90
50606;DHT22;36557;53.572;10.170;2022-07-10T04:59:05;14.10;99.90
50606;DHT22;36557;53.572;10.170;2022-07-10T05:01:31;14.20;99.90
50606;DHT22;36557;53.572;10.170;2022-07-10T05:03:57;14.20;99.90
50606;DHT22;36557;53.572;10.170;2022-07-10T05:06:23;14.10;99.90
50606;DHT22;36557;53.572;10.170;2022-07-10T05:08:49;14.20;99.90
50606;DHT22;36557;53.572;10.170;2022-07-10T05:11:15;14.40;99.90
50606;DHT22;36557;53.572;10.170;2022-07-10T05:13:41;14.40;99.90
50606;DHT22;36557;53.572;10.170;2022-07-10T05:16:11;14.40;99.90
50606;DHT22;36557;53.572;10.170;2022-07-10T05:18:38;14.50;99.90
50606;DHT22;36557;53.572;10.170;2022-07-10T05:21:04;14.50;99.90
50606;DHT22;36557;53.572;10.170;2022-07-10T05:23:30;14.50;99.90
50606;DHT22;36557;53.572;10.170;2022-07-10T05:25:56;14.50;99.90
50606;DHT22;36557;53.572;10.170;2022-07-10T05:28:22;14.50;99.90
50606;DHT22;36557;53.572;10.170;2022-07-10T05:30:48;14.60;99.90
50606;DHT22;36557;53.572;10.170;2022-07-10T05:33:15;14.80;99.90
50606;DHT22;36557;53.572;10.170;2022-07-10T05:35:41;14.70;99.90
50606;DHT22;36557;53.572;10.170;2022-07-10T05:38:06;14.80;99.90
50606;DHT22;36557;53.572;10.170;2022-07-10T05:40:32;14.70;99.90
50606;DHT22;36557;53.572;10.170;2022-07-10T05:42:58;14.90;99.90
50606;DHT22;36557;53.572;10.170;2022-07-10T05:45:24;14.60;99.90
50606;DHT22;36557;53.572;10.170;2022-07-10T05:47:50;14.70;99.90
50606;DHT22;36557;53.572;10.170;2022-07-10T05:50:16;14.70;99.90
50606;DHT22;36557;53.572;10.170;2022-07-10T05:52:42;14.70;99.90
50606;DHT22;36557;53.572;10.170;2022-07-10T05:55:08;14.80;99.90
50606;DHT22;36557;53.572;10.170;2022-07-10T05:57:34;14.90;99.90
50606;DHT22;36557;53.572;10.170;2022-07-10T06:00:00;14.90;99.90
50606;DHT22;36557;53.572;10.170;2022-07-10T06:02:26;15.20;99.90
50606;DHT22;36557;53.572;10.170;2022-07-10T06:04:52;15.50;99.90
50606;DHT22;36557;53.572;10.170;2022-07-10T06:07:18;15.40;99.90
50606;DHT22;36557;53.572;10.170;2022-07-10T06:09:43;15.40;99.90
50606;DHT22;36557;53.572;10.170;2022-07-10T06:12:09;15.40;99.90
50606;DHT22;36557;53.572;10.170;2022-07-10T06:14:35;15.60;99.90
50606;DHT22;36557;53.572;10.170;2022-07-10T06:17:01;15.70;99.90
50606;DHT22;36557;53.572;10.170;2022-07-10T06:19:27;15.70;99.90
50606;DHT22;36557;53.572;10.170;2022-07-10T06:21:53;15.50;99.90
50606;DHT22;36557;53.572;10.170;2022-07-10T06:24:37;15.70;99.90
50606;DHT22;36557;53.572;10.170;2022-07-10T06:27:04;15.50;99.90
50606;DHT22;36557;53.572;10.170;2022-07-10T06:29:29;15.30;99.90
50606;DHT22;36557;53.572;10.170;2022-07-10T06:31:55;15.30;99.90
50606;DHT22;36557;53.572;10.170;2022-07-10T06:34:21;15.20;99.90
50606;DHT22;36557;53.572;10.170;2022-07-10T06:36:47;15.20;99.90
50606;DHT22;36557;53.572;10.170;2022-07-10T06:39:12;15.50;99.90
50606;DHT22;36557;53.572;10.170;2022-07-10T06:41:38;15.60;99.90
50606;DHT22;36557;53.572;10.170;2022-07-10T06:44:04;15.50;99.90
50606;DHT22;36557;53.572;10.170;2022-07-10T06:46:31;15.60;99.90
50606;DHT22;36557;53.572;10.170;2022-07-10T06:48:57;15.50;99.90
50606;DHT22;36557;53.572;10.170;2022-07-10T06:51:23;15.80;99.90
50606;DHT22;36557;53.572;10.170;2022-07-10T06:53:49;15.90;99.90
50606;DHT22;36557;53.572;10.170;2022-07-10T06:56:15;15.60;99.90
50606;DHT22;36557;53.572;10.170;2022-07-10T06:58:41;15.70;99.90
50606;DHT22;36557;53.572;10.170;2022-07-10T07:01:07;15.70;99.90
50606;DHT22;36557;53.572;10.170;2022-07-10T07:03:33;15.90;99.90
50606;DHT22;36557;53.572;10.170;2022-07-10T07:05:59;16.10;99.90
50606;DHT22;36557;53.572;10.170;2022-07-10T07:08:24;16.10;99.90
50606;DHT22;36557;53.572;10.170;2022-07-10T07:10:50;16.20;99.90
50606;DHT22;36557;53.572;10.170;2022-07-10T07:13:16;16.30;99.90
50606;DHT22;36557;53.572;10.170;2022-07-10T07:15:42;16.50;99.90
50606;DHT22;36557;53.572;10.170;2022-07-10T07:18:12;16.70;99.90
50606;DHT22;36557;53.572;10.170;2022-07-10T07:20:41;16.50;99.90
50606;DHT22;36557;53.572;10.170;2022-07-10T07:23:26;16.70;99.90
50606;DHT22;36557;53.572;10.170;2022-07-10T07:25:52;16.60;99.90
50606;DHT22;36557;53.572;10.170;2022-07-10T07:28:19;16.40;99.90
50606;DHT22;36557;53.572;10.170;2022-07-10T07:30:49;16.70;99.90
50606;DHT22;36557;53.572;10.170;2022-07-10T07:33:15;16.20;99.90
50606;DHT22;36557;53.572;10.170;2022-07-10T07:35:41;16.40;99.90
50606;DHT22;36557;53.572;10.170;2022-07-10T07:40:33;16.50;99.90
50606;DHT22;36557;53.572;10.170;2022-07-10T07:42:59;16.40;99.90
50606;DHT22;36557;53.572;10.170;2022-07-10T07:45:25;16.30;99.90
50606;DHT22;36557;53.572;10.170;2022-07-10T07:47:56;16.50;99.90
50606;DHT22;36557;53.572;10.170;2022-07-10T07:52:51;17.30;99.90
50606;DHT22;36557;53.572;10.170;2022-07-10T07:55:18;16.90;99.90
50606;DHT22;36557;53.572;10.170;2022-07-10T07:57:45;16.50;99.90
50606;DHT22;36557;53.572;10.170;2022-07-10T08:00:12;16.30;99.90
50606;DHT22;36557;53.572;10.170;2022-07-10T08:02:38;16.30;99.90
50606;DHT22;36557;53.572;10.170;2022-07-10T08:05:04;16.10;99.90
50606;DHT22;36557;53.572;10.170;2022-07-10T08:07:47;16.00;99.90
50606;DHT22;36557;53.572;10.170;2022-07-10T08:10:16;16.80;99.90
50606;DHT22;36557;53.572;10.170;2022-07-10T08:12:43;17.00;99.90
50606;DHT22;36557;53.572;10.170;2022-07-10T08:15:12;17.00;99.90
50606;DHT22;36557;53.572;10.170;2022-07-10T08:17:38;17.50;99.90
50606;DHT22;36557;53.572;10.170;2022-07-10T08:20:04;17.50;99.90
50606;DHT22;36557;53.572;10.170;2022-07-10T08:22:33;17.10;99.90
50606;DHT22;36557;53.572;10.170;2022-07-10T08:24:59;17.70;99.60
50606;DHT22;36557;53.572;10.170;2022-07-10T08:27:25;18.10;99.50
50606;DHT22;36557;53.572;10.170;2022-07-10T08:29:51;18.20;96.50
50606;DHT22;36557;53.572;10.170;2022-07-10T08:32:17;18.00;97.50
50606;DHT22;36557;53.572;10.170;2022-07-10T08:34:43;17.80;95.90
50606;DHT22;36557;53.572;10.170;2022-07-10T08:37:09;18.20;97.10
50606;DHT22;36557;53.572;10.170;2022-07-10T08:39:35;18.00;96.70
50606;DHT22;36557;53.572;10.170;2022-07-10T08:42:01;18.00;96.50
50606;DHT22;36557;53.572;10.170;2022-07-10T08:44:28;18.90;98.00
50606;DHT22;36557;53.572;10.170;2022-07-10T08:46:54;19.00;96.50
50606;DHT22;36557;53.572;10.170;2022-07-10T08:49:26;18.30;96.50
50606;DHT22;36557;53.572;10.170;2022-07-10T08:52:08;18.50;97.40
50606;DHT22;36557;53.572;10.170;2022-07-10T08:54:37;18.10;95.90
50606;DHT22;36557;53.572;10.170;2022-07-10T08:57:04;18.20;96.90
50606;DHT22;36557;53.572;10.170;2022-07-10T08:59:30;18.70;96.60
50606;DHT22;36557;53.572;10.170;2022-07-10T09:01:56;19.40;96.70
50606;DHT22;36557;53.572;10.170;2022-07-10T09:04:26;18.90;92.90
50606;DHT22;36557;53.572;10.170;2022-07-10T09:06:54;19.10;95.40
50606;DHT22;36557;53.572;10.170;2022-07-10T09:09:20;17.90;93.30
50606;DHT22;36557;53.572;10.170;2022-07-10T09:11:47;18.10;94.40
50606;DHT22;36557;53.572;10.170;2022-07-10T09:14:16;18.70;94.60
50606;DHT22;36557;53.572;10.170;2022-07-10T09:16:44;19.00;94.50
50606;DHT22;36557;53.572;10.170;2022-07-10T09:19:26;18.40;93.90
50606;DHT22;36557;53.572;10.170;2022-07-10T09:22:05;18.50;94.50
50606;DHT22;36557;53.572;10.170;2022-07-10T09:24:41;18.70;92.00
50606;DHT22;36557;53.572;10.170;2022-07-10T09:27:07;18.50;92.40
50606;DHT22;36557;53.572;10.170;2022-07-10T09:29:51;18.40;92.30
50606;DHT22;36557;53.572;10.170;2022-07-10T09:32:20;19.00;93.20
50606;DHT22;36557;53.572;10.170;2022-07-10T09:34:50;18.70;92.80
50606;DHT22;36557;53.572;10.170;2022-07-10T09:37:39;18.80;93.50
50606;DHT22;36557;53.572;10.170;2022-07-10T09:40:06;19.30;94.00
50606;DHT22;36557;53.572;10.170;2022-07-10T09:42:40;19.30;94.00
50606;DHT22;36557;53.572;10.170;2022-07-10T09:45:17;20.10;95.80
50606;DHT22;36557;53.572;10.170;2022-07-10T09:50:23;19.50;94.30
50606;DHT22;36557;53.572;10.170;2022-07-10T09:52:54;19.00;94.50
50606;DHT22;36557;53.572;10.170;2022-07-10T09:55:23;19.50;94.10
50606;DHT22;36557;53.572;10.170;2022-07-10T09:58:01;19.50;94.10
50606;DHT22;36557;53.572;10.170;2022-07-10T10:00:39;19.20;94.40
50606;DHT22;36557;53.572;10.170;2022-07-10T10:03:11;19.70;94.50
50606;DHT22;36557;53.572;10.170;2022-07-10T10:06:16;20.80;93.70
50606;DHT22;36557;53.572;10.170;2022-07-10T10:09:04;20.40;91.20
50606;DHT22;36557;53.572;10.170;2022-07-10T10:11:33;19.60;93.40
50606;DHT22;36557;53.572;10.170;2022-07-10T10:14:01;21.30;94.40
50606;DHT22;36557;53.572;10.170;2022-07-10T10:16:29;20.50;92.90
50606;DHT22;36557;53.572;10.170;2022-07-10T10:18:55;19.80;91.80
50606;DHT22;36557;53.572;10.170;2022-07-10T10:21:40;20.20;93.50
50606;DHT22;36557;53.572;10.170;2022-07-10T10:24:06;20.60;91.50
50606;DHT22;36557;53.572;10.170;2022-07-10T10:26:32;19.50;92.00
50606;DHT22;36557;53.572;10.170;2022-07-10T10:29:01;19.70;93.70
50606;DHT22;36557;53.572;10.170;2022-07-10T10:31:28;21.10;93.20
50606;DHT22;36557;53.572;10.170;2022-07-10T10:33:55;20.50;93.00
50606;DHT22;36557;53.572;10.170;2022-07-10T10:39:12;20.50;92.30
50606;DHT22;36557;53.572;10.170;2022-07-10T10:41:46;20.40;90.00
50606;DHT22;36557;53.572;10.170;2022-07-10T10:49:50;20.30;89.70
50606;DHT22;36557;53.572;10.170;2022-07-10T10:52:17;21.00;84.20
50606;DHT22;36557;53.572;10.170;2022-07-10T10:55:03;20.00;83.80
50606;DHT22;36557;53.572;10.170;2022-07-10T11:00:12;21.10;88.80
50606;DHT22;36557;53.572;10.170;2022-07-10T11:02:40;21.20;87.60
50606;DHT22;36557;53.572;10.170;2022-07-10T11:07:54;22.90;84.00
50606;DHT22;36557;53.572;10.170;2022-07-10T11:10:32;23.50;80.40
50606;DHT22;36557;53.572;10.170;2022-07-10T11:13:14;23.10;78.30
50606;DHT22;36557;53.572;10.170;2022-07-10T11:15:48;20.70;76.50
50606;DHT22;36557;53.572;10.170;2022-07-10T11:18:19;20.90;85.80
50606;DHT22;36557;53.572;10.170;2022-07-10T11:20:51;21.20;80.10
50606;DHT22;36557;53.572;10.170;2022-07-10T11:29:09;22.40;82.00
50606;DHT22;36557;53.572;10.170;2022-07-10T11:31:35;22.10;79.30
50606;DHT22;36557;53.572;10.170;2022-07-10T11:34:09;22.60;78.80
50606;DHT22;36557;53.572;10.170;2022-07-10T11:36:38;21.70;73.00
50606;DHT22;36557;53.572;10.170;2022-07-10T11:39:06;21.70;77.70
50606;DHT22;36557;53.572;10.170;2022-07-10T11:41:34;20.80;77.70
50606;DHT22;36557;53.572;10.170;2022-07-10T11:44:01;20.00;81.00
50606;DHT22;36557;53.572;10.170;2022-07-10T11:46:29;20.30;85.10
50606;DHT22;36557;53.572;10.170;2022-07-10T11:48:56;20.80;86.60
50606;DHT22;36557;53.572;10.170;2022-07-10T11:51:29;21.50;86.20
50606;DHT22;36557;53.572;10.170;2022-07-10T11:54:00;21.80;82.20
50606;DHT22;36557;53.572;10.170;2022-07-10T11:56:28;21.80;78.70
50606;DHT22;36557;53.572;10.170;2022-07-10T11:58:59;20.80;81.30
50606;DHT22;36557;53.572;10.170;2022-07-10T12:01:26;20.00;87.20
50606;DHT22;36557;53.572;10.170;2022-07-10T12:04:00;19.70;89.20
50606;DHT22;36557;53.572;10.170;2022-07-10T12:06:26;19.90;89.20
50606;DHT22;36557;53.572;10.170;2022-07-10T12:08:53;20.10;87.70
50606;DHT22;36557;53.572;10.170;2022-07-10T12:11:20;19.90;87.30
50606;DHT22;36557;53.572;10.170;2022-07-10T12:13:47;19.20;90.30
50606;DHT22;36557;53.572;10.170;2022-07-10T12:16:15;19.40;91.40
50606;DHT22;36557;53.572;10.170;2022-07-10T12:18:41;19.50;90.80
50606;DHT22;36557;53.572;10.170;2022-07-10T12:21:09;19.00;88.40
50606;DHT22;36557;53.572;10.170;2022-07-10T12:23:36;19.60;87.40
50606;DHT22;36557;53.572;10.170;2022-07-10T12:26:08;19.80;90.50
50606;DHT22;36557;53.572;10.170;2022-07-10T12:28:56;19.40;87.90
50606;DHT22;36557;53.572;10.170;2022-07-10T12:31:27;20.00;90.30
50606;DHT22;36557;53.572;10.170;2022-07-10T12:34:05;20.10;90.40
50606;DHT22;36557;53.572;10.170;2022-07-10T12:36:50;20.40;88.60
50606;DHT22;36557;53.572;10.170;2022-07-10T12:39:22;19.60;88.20
50606;DHT22;36557;53.572;10.170;2022-07-10T12:42:01;18.90;88.30
50606;DHT22;36557;53.572;10.170;2022-07-10T12:44:40;19.30;92.10
50606;DHT22;36557;53.572;10.170;2022-07-10T12:47:12;19.00;89.90
50606;DHT22;36557;53.572;10.170;2022-07-10T12:49:56;19.00;90.00
50606;DHT22;36557;53.572;10.170;2022-07-10T12:52:31;19.00;91.10
50606;DHT22;36557;53.572;10.170;2022-07-10T12:57:49;20.00;90.80
50606;DHT22;36557;53.572;10.170;2022-07-10T13:00:17;20.30;90.80
50606;DHT22;36557;53.572;10.170;2022-07-10T13:02:45;20.90;90.60
50606;DHT22;36557;53.572;10.170;2022-07-10T13:05:43;18.90;91.30
50606;DHT22;36557;53.572;10.170;2022-07-10T13:08:15;19.00;91.10
50606;DHT22;36557;53.572;10.170;2022-07-10T13:10:43;18.90;91.90
50606;DHT22;36557;53.572;10.170;2022-07-10T13:13:09;19.20;92.60
50606;DHT22;36557;53.572;10.170;2022-07-10T13:15:35;19.40;93.10
50606;DHT22;36557;53.572;10.170;2022-07-10T13:18:23;19.20;91.90
50606;DHT22;36557;53.572;10.170;2022-07-10T13:20:51;19.20;92.00
50606;DHT22;36557;53.572;10.170;2022-07-10T13:23:17;19.50;93.30
50606;DHT22;36557;53.572;10.170;2022-07-10T13:25:53;18.50;92.20
50606;DHT22;36557;53.572;10.170;2022-07-10T13:28:19;18.40;92.60
50606;DHT22;36557;53.572;10.170;2022-07-10T13:30:45;18.50;94.10
50606;DHT22;36557;53.572;10.170;2022-07-10T13:33:12;18.40;93.40
50606;DHT22;36557;53.572;10.170;2022-07-10T13:35:37;18.60;94.30
50606;DHT22;36557;53.572;10.170;2022-07-10T13:38:04;18.80;94.30
50606;DHT22;36557;53.572;10.170;2022-07-10T13:40:34;18.80;93.40
50606;DHT22;36557;53.572;10.170;2022-07-10T13:43:00;18.70;94.20
50606;DHT22;36557;53.572;10.170;2022-07-10T13:45:27;18.80;93.10
50606;DHT22;36557;53.572;10.170;2022-07-10T13:47:58;18.80;94.20
50606;DHT22;36557;53.572;10.170;2022-07-10T13:50:23;18.50;93.00
50606;DHT22;36557;53.572;10.170;2022-07-10T13:52:50;18.60;92.90
50606;DHT22;36557;53.572;10.170;2022-07-10T13:55:16;18.80;94.10
50606;DHT22;36557;53.572;10.170;2022-07-10T13:57:42;18.60;93.30
50606;DHT22;36557;53.572;10.170;2022-07-10T14:00:08;18.50;93.10
50606;DHT22;36557;53.572;10.170;2022-07-10T14:02:34;19.60;94.70
50606;DHT22;36557;53.572;10.170;2022-07-10T14:05:00;19.50;91.70
50606;DHT22;36557;53.572;10.170;2022-07-10T14:07:26;19.20;92.10
50606;DHT22;36557;53.572;10.170;2022-07-10T14:09:52;19.00;93.00
50606;DHT22;36557;53.572;10.170;2022-07-10T14:12:18;19.60;94.10
50606;DHT22;36557;53.572;10.170;2022-07-10T14:14:43;19.10;92.60
50606;DHT22;36557;53.572;10.170;2022-07-10T14:17:09;18.90;94.80
50606;DHT22;36557;53.572;10.170;2022-07-10T14:19:35;18.90;94.10
50606;DHT22;36557;53.572;10.170;2022-07-10T14:22:01;19.30;95.00
50606;DHT22;36557;53.572;10.170;2022-07-10T14:24:27;19.20;93.30
50606;DHT22;36557;53.572;10.170;2022-07-10T14:26:52;18.60;93.80
50606;DHT22;36557;53.572;10.170;2022-07-10T14:29:19;18.50;93.90
50606;DHT22;36557;53.572;10.170;2022-07-10T14:31:45;18.50;94.20
50606;DHT22;36557;53.572;10.170;2022-07-10T14:34:15;18.10;94.60
50606;DHT22;36557;53.572;10.170;2022-07-10T14:36:41;18.10;94.50
50606;DHT22;36557;53.572;10.170;2022-07-10T14:39:06;18.30;95.60
50606;DHT22;36557;53.572;10.170;2022-07-10T14:41:32;18.00;94.80
50606;DHT22;36557;53.572;10.170;2022-07-10T14:43:58;18.60;95.50
50606;DHT22;36557;53.572;10.170;2022-07-10T14:46:24;18.80;95.80
50606;DHT22;36557;53.572;10.170;2022-07-10T14:48:50;19.10;93.70
50606;DHT22;36557;53.572;10.170;2022-07-10T14:51:17;19.00;95.20
50606;DHT22;36557;53.572;10.170;2022-07-10T14:53:43;18.90;94.10
50606;DHT22;36557;53.572;10.170;2022-07-10T14:56:10;18.80;94.50
50606;DHT22;36557;53.572;10.170;2022-07-10T14:58:37;18.80;95.20
50606;DHT22;36557;53.572;10.170;2022-07-10T15:01:03;19.20;95.30
50606;DHT22;36557;53.572;10.170;2022-07-10T15:03:29;19.70;94.20
50606;DHT22;36557;53.572;10.170;2022-07-10T15:05:55;19.90;93.40
50606;DHT22;36557;53.572;10.170;2022-07-10T15:08:25;19.90;94.20
50606;DHT22;36557;53.572;10.170;2022-07-10T15:10:51;19.60;93.80
50606;DHT22;36557;53.572;10.170;2022-07-10T15:13:17;19.80;94.10
50606;DHT22;36557;53.572;10.170;2022-07-10T15:15:43;20.00;93.30
50606;DHT22;36557;53.572;10.170;2022-07-10T15:18:09;20.20;93.30
50606;DHT22;36557;53.572;10.170;2022-07-10T15:20:35;20.60;94.20
50606;DHT22;36557;53.572;10.170;2022-07-10T15:23:03;20.60;93.60
50606;DHT22;36557;53.572;10.170;2022-07-10T15:25:28;20.90;92.40
50606;DHT22;36557;53.572;10.170;2022-07-10T15:27:54;20.40;91.40
50606;DHT22;36557;53.572;10.170;2022-07-10T15:30:21;20.70;92.60
50606;DHT22;36557;53.572;10.170;2022-07-10T15:32:47;20.90;92.10
50606;DHT22;36557;53.572;10.170;2022-07-10T15:35:13;20.60;90.80
50606;DHT22;36557;53.572;10.170;2022-07-10T15:37:39;20.70;91.90
50606;DHT22;36557;53.572;10.170;2022-07-10T15:40:05;19.90;90.80
50606;DHT22;36557;53.572;10.170;2022-07-10T15:42:31;19.80;91.40
50606;DHT22;36557;53.572;10.170;2022-07-10T15:44:57;19.50;92.80
50606;DHT22;36557;53.572;10.170;2022-07-10T15:47:23;19.60;94.60
50606;DHT22;36557;53.572;10.170;2022-07-10T15:52:16;20.10;92.20